Time,TemperatureF,DewpointF,PressureIn,WindDirection,WindDirectionDegrees,WindSpeedMPH,WindSpeedGustMPH,Humidity,HourlyPrecipIn,Conditions,Clouds,dailyrainin,SoftwareType,DateUTC
2013-07-11 00:00:00,75.2,74.3,30.04,ESE,112,0.0,0.0,97,0.00,RA,,0.00,WeatherDisplay:10.37,2013-07-11 04:00:00,
2013-07-11 00:01:00,75.2,74.3,30.04,ESE,112,0.0,0.0,97,0.00,RA,,0.00,WeatherDisplay:10.37,2013-07-11 04:01:00,
2013-07-11 00:06:00,75.3,74.4,30.04,ESE,112,0.0,0.0,97,0.00,RA,,0.00,WeatherDisplay:10.37,2013-07-11 04:06:00,
2013-07-11 00:11:00,75.3,74.4,30.03,ESE,112,0.0,0.0,97,0.00,CLR,,0.00,WeatherDisplay:10.37,2013-07-11 04:11:00,
2013-07-11 00:16:00,75.4,74.5,30.03,ESE,112,0.0,0.0,97,0.00,CLR,,0.00,WeatherDisplay:10.37,2013-07-11 04:16:00,
2013-07-11 00:21:00,75.5,74.6,30.03,ESE,112,0.0,0.0,97,0.00,CLR,,0.00,WeatherDisplay:10.37,2013-07-11 04:21:00,
2013-07-11 00:26:00,75.4,74.5,30.03,ESE,112,0.0,0.0,97,0.00,CLR,,0.00,WeatherDisplay:10.37,2013-07-11 04:26:00,
2013-07-11 00:31:00,75.3,74.4,30.03,ESE,112,0.0,0.0,97,0.00,CLR,,0.00,WeatherDisplay:10.37,2013-07-11 04:31:00,
2013-07-11 00:36:00,75.3,74.4,30.03,ESE,112,0.0,0.0,97,0.00,CLR,,0.00,WeatherDisplay:10.37,2013-07-11 04:36:00,
2013-07-11 00:41:00,75.2,74.3,30.03,ESE,112,0.0,0.0,97,0.00,CLR,,0.00,WeatherDisplay:10.37,2013-07-11 04:41:00,
2013-07-11 00:46:00,75.1,74.2,30.03,ESE,112,0.0,0.0,97,0.00,CLR,,0.00,WeatherDisplay:10.37,2013-07-11 04:46:00,
2013-07-11 00:51:00,75.0,74.1,30.03,ESE,112,0.0,0.0,97,0.00,CLR,,0.00,WeatherDisplay:10.37,2013-07-11 04:51:00,
2013-07-11 00:56:00,74.9,74.0,30.03,ESE,112,0.0,0.0,97,0.00,CLR,,0.00,WeatherDisplay:10.37,2013-07-11 04:56:00,
2013-07-11 01:01:00,74.8,73.9,30.02,ESE,112,0.0,0.0,97,0.00,CLR,,0.00,WeatherDisplay:10.37,2013-07-11 05:01:00,
2013-07-11 01:06:00,74.8,73.9,30.02,ESE,112,0.0,0.0,97,0.00,CLR,,0.00,WeatherDisplay:10.37,2013-07-11 05:06:00,
2013-07-11 01:11:00,74.7,73.8,30.02,ESE,112,0.0,0.0,97,0.00,CLR,,0.00,WeatherDisplay:10.37,2013-07-11 05:11:00,
2013-07-11 01:16:00,74.7,73.8,30.02,ESE,112,0.0,0.0,97,0.00,CLR,,0.00,WeatherDisplay:10.37,2013-07-11 05:16:00,
2013-07-11 01:21:00,74.5,73.6,30.02,ESE,112,0.0,0.0,97,0.00,CLR,,0.00,WeatherDisplay:10.37,2013-07-11 05:21:00,
2013-07-11 01:26:00,74.5,73.6,30.02,ESE,112,0.0,0.0,97,0.00,CLR,,0.00,WeatherDisplay:10.37,2013-07-11 05:26:00,
2013-07-11 01:31:00,74.6,73.7,30.02,ESE,112,0.0,0.0,97,0.00,CLR,,0.00,WeatherDisplay:10.37,2013-07-11 05:31:00,
2013-07-11 01:36:00,74.7,73.8,30.02,ESE,112,0.0,0.0,97,0.00,CLR,,0.00,WeatherDisplay:10.37,2013-07-11 05:36:00,
2013-07-11 01:41:00,75.0,74.1,30.02,ESE,112,0.0,0.0,97,0.00,CLR,,0.00,WeatherDisplay:10.37,2013-07-11 05:41:00,
2013-07-11 01:46:00,75.0,74.1,30.01,ESE,112,0.0,0.0,97,0.00,CLR,,0.00,WeatherDisplay:10.37,2013-07-11 05:46:00,
2013-07-11 01:51:00,74.9,74.0,30.02,ESE,112,0.0,0.0,97,0.00,CLR,,0.00,WeatherDisplay:10.37,2013-07-11 05:51:00,
2013-07-11 01:56:00,74.8,73.9,30.01,ESE,112,0.0,0.0,97,0.00,CLR,,0.00,WeatherDisplay:10.37,2013-07-11 05:56:00,
2013-07-11 02:01:00,74.6,73.7,30.01,ESE,112,0.0,0.0,97,0.00,CLR,,0.00,WeatherDisplay:10.37,2013-07-11 06:01:00,
2013-07-11 02:06:00,74.4,73.5,30.01,ESE,112,0.0,0.0,97,0.00,CLR,,0.00,WeatherDisplay:10.37,2013-07-11 06:06:00,
2013-07-11 02:12:00,74.3,73.4,30.01,ESE,112,0.0,0.0,97,0.00,CLR,,0.00,WeatherDisplay:10.37,2013-07-11 06:12:00,
2013-07-11 02:17:00,74.2,73.3,30.01,ESE,112,0.0,0.0,97,0.00,CLR,,0.00,WeatherDisplay:10.37,2013-07-11 06:17:00,
2013-07-11 02:22:00,74.1,73.2,30.01,ESE,112,0.0,0.0,97,0.00,CLR,,0.00,WeatherDisplay:10.37,2013-07-11 06:22:00,
2013-07-11 02:27:00,74.2,73.3,30.01,ESE,112,0.0,0.0,97,0.00,CLR,,0.00,WeatherDisplay:10.37,2013-07-11 06:27:00,
2013-07-11 02:32:00,74.2,73.3,30.01,ESE,112,0.0,0.0,97,0.00,CLR,,0.00,WeatherDisplay:10.37,2013-07-11 06:32:00,
2013-07-11 02:37:00,74.2,73.3,30.01,ESE,112,0.0,0.0,97,0.00,CLR,,0.00,WeatherDisplay:10.37,2013-07-11 06:37:00,
2013-07-11 02:42:00,74.0,73.1,30.01,ESE,112,0.0,0.0,97,0.00,CLR,,0.00,WeatherDisplay:10.37,2013-07-11 06:42:00,
2013-07-11 02:47:00,74.0,73.1,30.01,ESE,112,0.0,0.0,97,0.00,CLR,,0.00,WeatherDisplay:10.37,2013-07-11 06:47:00,
2013-07-11 02:52:00,74.0,73.1,30.00,ESE,112,0.0,0.0,97,0.00,CLR,,0.00,WeatherDisplay:10.37,2013-07-11 06:52:00,
2013-07-11 02:57:00,73.9,73.0,30.00,ESE,112,0.0,0.0,97,0.00,CLR,,0.00,WeatherDisplay:10.37,2013-07-11 06:57:00,
2013-07-11 03:02:00,74.0,73.4,30.00,ESE,112,0.0,0.0,98,0.00,CLR,,0.00,WeatherDisplay:10.37,2013-07-11 07:02:00,
2013-07-11 03:07:00,74.3,73.7,30.00,ESE,112,0.0,0.0,98,0.00,CLR,,0.00,WeatherDisplay:10.37,2013-07-11 07:07:00,
2013-07-11 03:12:00,74.4,73.8,30.00,ESE,112,0.0,0.0,98,0.00,CLR,,0.00,WeatherDisplay:10.37,2013-07-11 07:12:00,
2013-07-11 03:17:00,74.6,74.0,30.00,ESE,112,0.0,0.0,98,0.00,CLR,,0.00,WeatherDisplay:10.37,2013-07-11 07:17:00,
2013-07-11 03:22:00,74.6,74.0,30.00,ESE,112,0.0,0.0,98,0.00,CLR,,0.00,WeatherDisplay:10.37,2013-07-11 07:22:00,
2013-07-11 03:27:00,74.6,74.0,30.00,ESE,112,0.0,0.0,98,0.00,CLR,,0.00,WeatherDisplay:10.37,2013-07-11 07:27:00,
2013-07-11 03:32:00,74.6,74.0,30.00,ESE,112,0.0,0.0,98,0.00,CLR,,0.00,WeatherDisplay:10.37,2013-07-11 07:32:00,
2013-07-11 03:37:00,74.8,74.2,30.00,ESE,112,0.0,0.0,98,0.00,CLR,,0.00,WeatherDisplay:10.37,2013-07-11 07:37:00,
2013-07-11 03:42:00,74.8,74.2,30.00,ESE,112,0.0,0.0,98,0.00,CLR,,0.00,WeatherDisplay:10.37,2013-07-11 07:42:00,
2013-07-11 03:47:00,74.7,73.8,30.00,ESE,112,0.0,0.0,97,0.00,CLR,,0.00,WeatherDisplay:10.37,2013-07-11 07:47:00,
2013-07-11 03:52:00,74.6,74.0,30.00,ESE,112,0.0,0.0,98,0.00,CLR,,0.00,WeatherDisplay:10.37,2013-07-11 07:52:00,
2013-07-11 03:57:00,74.6,74.0,30.00,ESE,112,0.0,0.0,98,0.00,CLR,,0.00,WeatherDisplay:10.37,2013-07-11 07:57:00,
2013-07-11 04:02:00,74.6,74.0,30.00,ESE,112,0.0,0.0,98,0.00,CLR,,0.00,WeatherDisplay:10.37,2013-07-11 08:02:00,
2013-07-11 04:07:00,74.6,74.0,30.00,ESE,112,0.0,0.0,98,0.00,CLR,,0.00,WeatherDisplay:10.37,2013-07-11 08:07:00,
2013-07-11 04:12:00,74.6,74.0,29.99,ESE,112,0.0,0.0,98,0.00,CLR,,0.00,WeatherDisplay:10.37,2013-07-11 08:12:00,
2013-07-11 04:17:00,74.9,74.3,29.99,ESE,112,0.0,0.0,98,0.00,CLR,,0.00,WeatherDisplay:10.37,2013-07-11 08:17:00,
2013-07-11 04:22:00,75.1,74.5,29.99,ESE,112,0.0,0.0,98,0.00,CLR,,0.00,WeatherDisplay:10.37,2013-07-11 08:22:00,
2013-07-11 04:27:00,75.0,74.4,29.98,ESE,112,0.0,0.0,98,0.00,CLR,,0.00,WeatherDisplay:10.37,2013-07-11 08:27:00,
2013-07-11 04:32:00,75.0,74.4,29.99,ESE,112,0.0,0.0,98,0.00,CLR,,0.00,WeatherDisplay:10.37,2013-07-11 08:32:00,
2013-07-11 04:37:00,75.1,74.5,29.98,ESE,112,0.0,0.0,98,0.00,CLR,,0.00,WeatherDisplay:10.37,2013-07-11 08:37:00,
2013-07-11 04:42:00,75.1,74.5,29.99,ESE,112,0.0,0.0,98,0.00,CLR,,0.00,WeatherDisplay:10.37,2013-07-11 08:42:00,
2013-07-11 04:47:00,75.0,74.4,29.99,ESE,112,0.0,0.0,98,0.00,CLR,,0.00,WeatherDisplay:10.37,2013-07-11 08:47:00,
2013-07-11 04:52:00,75.1,74.5,29.99,ESE,112,0.0,0.0,98,0.00,CLR,,0.00,WeatherDisplay:10.37,2013-07-11 08:52:00,
2013-07-11 04:57:00,75.1,74.5,29.99,ESE,112,0.0,0.0,98,0.00,CLR,,0.00,WeatherDisplay:10.37,2013-07-11 08:57:00,
2013-07-11 05:02:00,75.0,74.4,29.99,ESE,112,0.0,0.0,98,0.00,CLR,,0.00,WeatherDisplay:10.37,2013-07-11 09:02:00,
2013-07-11 05:07:00,74.9,74.3,29.99,ESE,112,0.0,0.0,98,0.00,CLR,,0.00,WeatherDisplay:10.37,2013-07-11 09:07:00,
2013-07-11 05:12:00,74.8,74.2,29.99,ESE,112,0.0,0.0,98,0.00,CLR,,0.00,WeatherDisplay:10.37,2013-07-11 09:12:00,
2013-07-11 05:17:00,74.8,74.2,29.99,ESE,112,0.0,0.0,98,0.00,CLR,,0.00,WeatherDisplay:10.37,2013-07-11 09:17:00,
2013-07-11 05:22:00,75.0,74.4,29.99,ESE,112,0.0,0.0,98,0.00,CLR,,0.00,WeatherDisplay:10.37,2013-07-11 09:22:00,
2013-07-11 05:27:00,75.1,74.5,29.99,ESE,112,0.0,0.0,98,0.00,CLR,,0.00,WeatherDisplay:10.37,2013-07-11 09:27:00,
2013-07-11 05:32:00,75.1,74.5,29.99,ESE,112,0.0,0.0,98,0.00,CLR,,0.00,WeatherDisplay:10.37,2013-07-11 09:32:00,
2013-07-11 05:37:00,75.1,74.5,29.99,ESE,112,0.0,0.0,98,0.00,CLR,,0.00,WeatherDisplay:10.37,2013-07-11 09:37:00,
2013-07-11 05:42:00,74.9,74.3,29.99,ESE,112,0.0,0.0,98,0.00,CLR,,0.00,WeatherDisplay:10.37,2013-07-11 09:42:00,
2013-07-11 05:47:00,74.8,74.2,29.99,ESE,112,0.0,0.0,98,0.00,CLR,,0.00,WeatherDisplay:10.37,2013-07-11 09:47:00,
2013-07-11 05:52:00,74.9,74.3,29.99,ESE,112,0.0,0.0,98,0.00,CLR,,0.00,WeatherDisplay:10.37,2013-07-11 09:52:00,
2013-07-11 05:57:00,74.9,74.3,30.00,ESE,112,0.0,0.0,98,0.00,CLR,,0.00,WeatherDisplay:10.37,2013-07-11 09:57:00,
2013-07-11 06:02:00,74.7,73.8,29.99,ESE,112,0.0,0.0,97,0.00,CLR,,0.00,WeatherDisplay:10.37,2013-07-11 10:02:00,
2013-07-11 06:07:00,74.5,73.9,30.00,ESE,112,0.0,0.0,98,0.01,RA,,0.01,WeatherDisplay:10.37,2013-07-11 10:07:00,
2013-07-11 06:12:00,74.4,73.8,29.99,ESE,112,0.0,0.0,98,0.01,RA,,0.01,WeatherDisplay:10.37,2013-07-11 10:12:00,
2013-07-11 06:17:00,74.3,73.7,30.00,ESE,112,0.0,0.0,98,0.01,,,0.01,WeatherDisplay:10.37,2013-07-11 10:17:00,
2013-07-11 06:22:00,74.6,74.0,29.99,ESE,112,0.0,0.0,98,0.01,CLR,,0.01,WeatherDisplay:10.37,2013-07-11 10:22:00,
2013-07-11 06:27:00,75.1,74.5,29.99,ESE,112,0.0,0.0,98,0.01,CLR,,0.01,WeatherDisplay:10.37,2013-07-11 10:27:00,
2013-07-11 06:32:00,75.1,74.5,29.99,ESE,112,0.0,0.0,98,0.01,CLR,,0.01,WeatherDisplay:10.37,2013-07-11 10:32:00,
2013-07-11 06:37:00,74.9,74.3,29.99,ESE,112,0.0,0.0,98,0.01,CLR,,0.01,WeatherDisplay:10.37,2013-07-11 10:37:00,
2013-07-11 06:42:00,74.9,74.3,30.00,ESE,112,0.0,0.0,98,0.01,CLR,,0.01,WeatherDisplay:10.37,2013-07-11 10:42:00,
2013-07-11 06:47:00,75.1,74.5,30.00,ESE,112,0.0,0.0,98,0.01,CLR,,0.01,WeatherDisplay:10.37,2013-07-11 10:47:00,
2013-07-11 06:52:00,75.0,74.4,30.00,ESE,112,0.0,0.0,98,0.01,CLR,,0.01,WeatherDisplay:10.37,2013-07-11 10:52:00,
2013-07-11 06:57:00,74.9,74.3,30.00,ESE,112,0.0,0.0,98,0.01,CLR,,0.01,WeatherDisplay:10.37,2013-07-11 10:57:00,
2013-07-11 07:02:00,74.8,74.2,30.00,ESE,112,0.0,0.0,98,0.01,CLR,,0.01,WeatherDisplay:10.37,2013-07-11 11:02:00,
2013-07-11 07:07:00,74.8,74.2,30.00,ESE,112,0.0,0.0,98,0.00,CLR,,0.01,WeatherDisplay:10.37,2013-07-11 11:07:00,
2013-07-11 07:12:00,74.8,74.2,30.00,ESE,112,0.0,0.0,98,0.00,CLR,,0.01,WeatherDisplay:10.37,2013-07-11 11:12:00,
2013-07-11 07:17:00,74.9,74.3,30.00,ESE,112,0.0,0.0,98,0.00,CLR,,0.01,WeatherDisplay:10.37,2013-07-11 11:17:00,
2013-07-11 07:22:00,75.1,74.5,30.00,ESE,112,0.0,0.0,98,0.00,CLR,,0.01,WeatherDisplay:10.37,2013-07-11 11:22:00,
2013-07-11 07:27:00,75.5,74.9,30.00,ESE,112,0.0,0.0,98,0.00,CLR,,0.01,WeatherDisplay:10.37,2013-07-11 11:27:00,
2013-07-11 07:32:00,76.3,76.0,30.00,ESE,112,0.0,0.0,99,0.00,CLR,,0.01,WeatherDisplay:10.37,2013-07-11 11:32:00,
2013-07-11 07:37:00,76.8,76.5,30.01,ESE,112,0.0,0.0,99,0.00,CLR,,0.01,WeatherDisplay:10.37,2013-07-11 11:37:00,
2013-07-11 07:42:00,77.4,77.1,30.01,ESE,112,0.0,0.0,99,0.00,CLR,,0.01,WeatherDisplay:10.37,2013-07-11 11:42:00,
2013-07-11 07:47:00,77.6,77.0,30.01,ESE,112,0.0,0.0,98,0.00,CLR,,0.01,WeatherDisplay:10.37,2013-07-11 11:47:00,
2013-07-11 07:52:00,78.3,77.7,30.01,ESE,112,0.0,0.0,98,0.00,CLR,,0.01,WeatherDisplay:10.37,2013-07-11 11:52:00,
2013-07-11 07:58:00,78.4,77.8,30.01,ESE,112,0.0,0.0,98,0.00,CLR,,0.01,WeatherDisplay:10.37,2013-07-11 11:58:00,
2013-07-11 08:03:00,78.6,77.7,30.01,ESE,112,0.0,0.0,97,0.00,CLR,,0.01,WeatherDisplay:10.37,2013-07-11 12:03:00,
2013-07-11 08:08:00,78.9,78.0,30.01,ESE,112,0.0,0.0,97,0.00,CLR,,0.01,WeatherDisplay:10.37,2013-07-11 12:08:00,
2013-07-11 08:13:00,79.7,78.5,30.01,ESE,112,0.0,0.0,96,0.00,CLR,,0.01,WeatherDisplay:10.37,2013-07-11 12:13:00,
2013-07-11 08:18:00,80.3,78.4,30.01,ESE,112,0.0,0.0,94,0.00,CLR,,0.01,WeatherDisplay:10.37,2013-07-11 12:18:00,
2013-07-11 08:23:00,80.7,78.5,30.01,ESE,112,0.0,0.0,93,0.00,CLR,,0.01,WeatherDisplay:10.37,2013-07-11 12:23:00,
2013-07-11 08:28:00,81.0,77.8,30.00,ESE,112,0.0,0.0,90,0.00,CLR,,0.01,WeatherDisplay:10.37,2013-07-11 12:28:00,
2013-07-11 08:33:00,81.6,78.4,30.00,ESE,112,0.0,0.0,90,0.00,CLR,,0.01,WeatherDisplay:10.37,2013-07-11 12:33:00,
2013-07-11 08:38:00,82.4,78.5,30.00,ESE,112,0.0,0.0,88,0.00,CLR,,0.01,WeatherDisplay:10.37,2013-07-11 12:38:00,
2013-07-11 08:43:00,82.5,77.9,30.00,ESE,112,0.0,0.0,86,0.00,CLR,,0.01,WeatherDisplay:10.37,2013-07-11 12:43:00,
2013-07-11 08:48:00,82.4,77.8,30.00,ESE,112,0.0,0.0,86,0.00,CLR,,0.01,WeatherDisplay:10.37,2013-07-11 12:48:00,
2013-07-11 08:53:00,82.3,77.7,30.00,ESE,112,0.0,0.0,86,0.01,RA,,0.02,WeatherDisplay:10.37,2013-07-11 12:53:00,
2013-07-11 08:58:00,82.5,77.9,30.00,ESE,112,0.0,0.0,86,0.01,RA,,0.02,WeatherDisplay:10.37,2013-07-11 12:58:00,
2013-07-11 09:03:00,82.5,77.9,30.00,ESE,112,0.0,0.0,86,0.01,,,0.02,WeatherDisplay:10.37,2013-07-11 13:03:00,
2013-07-11 09:09:00,82.1,77.8,30.00,ESE,112,0.0,0.0,87,0.01,CLR,,0.02,WeatherDisplay:10.37,2013-07-11 13:09:00,
2013-07-11 09:14:00,82.2,77.9,30.00,ESE,112,0.0,0.0,87,0.01,CLR,,0.02,WeatherDisplay:10.37,2013-07-11 13:14:00,
2013-07-11 09:19:00,82.1,77.8,29.99,ESE,112,0.0,0.0,87,0.01,CLR,,0.02,WeatherDisplay:10.37,2013-07-11 13:19:00,
2013-07-11 09:24:00,82.3,78.0,29.99,ESE,112,0.0,0.0,87,0.01,CLR,,0.02,WeatherDisplay:10.37,2013-07-11 13:24:00,
2013-07-11 09:30:00,82.7,77.7,29.99,ESE,112,0.0,0.0,85,0.01,CLR,,0.02,WeatherDisplay:10.37,2013-07-11 13:30:00,
2013-07-11 09:35:00,82.8,77.8,29.99,SE,146,0.4,2.3,85,0.01,CLR,,0.02,WeatherDisplay:10.37,2013-07-11 13:35:00,
2013-07-11 09:40:00,82.9,77.9,29.99,South,189,0.2,1.2,85,0.01,CLR,,0.02,WeatherDisplay:10.37,2013-07-11 13:40:00,
2013-07-11 09:45:00,83.3,78.0,29.99,SSW,198,0.0,0.0,84,0.01,CLR,,0.02,WeatherDisplay:10.37,2013-07-11 13:45:00,
2013-07-11 09:50:00,83.4,77.7,29.99,SSW,201,0.0,0.0,83,0.01,CLR,,0.02,WeatherDisplay:10.37,2013-07-11 13:50:00,
2013-07-11 09:55:00,83.3,77.6,29.99,SSW,198,0.0,0.0,83,0.00,CLR,,0.02,WeatherDisplay:10.37,2013-07-11 13:55:00,
2013-07-11 10:01:00,83.2,77.9,29.99,SSW,198,0.0,0.0,84,0.00,CLR,,0.02,WeatherDisplay:10.37,2013-07-11 14:01:00,
2013-07-11 10:06:00,83.0,77.7,29.99,SSW,198,0.0,0.0,84,0.00,CLR,,0.02,WeatherDisplay:10.37,2013-07-11 14:06:00,
2013-07-11 10:11:00,82.9,78.3,29.99,SSW,198,0.0,0.0,86,0.00,CLR,,0.02,WeatherDisplay:10.37,2013-07-11 14:11:00,
2013-07-11 10:17:00,83.1,78.1,29.99,SSW,198,0.0,0.0,85,0.00,CLR,,0.02,WeatherDisplay:10.37,2013-07-11 14:17:00,
2013-07-11 10:22:00,83.8,77.3,29.99,SE,124,4.4,8.1,81,0.00,CLR,,0.02,WeatherDisplay:10.37,2013-07-11 14:22:00,
2013-07-11 10:27:00,83.7,77.2,30.00,SE,138,3.4,3.5,81,0.00,CLR,,0.02,WeatherDisplay:10.37,2013-07-11 14:27:00,
2013-07-11 10:32:00,83.9,77.4,29.99,SSE,156,1.7,3.5,81,0.00,CLR,,0.02,WeatherDisplay:10.37,2013-07-11 14:32:00,
2013-07-11 10:37:00,84.2,76.2,29.99,ENE,76,3.1,5.8,77,0.00,CLR,,0.02,WeatherDisplay:10.37,2013-07-11 14:37:00,
2013-07-11 10:43:00,84.8,76.4,29.99,SE,144,4.2,6.9,76,0.00,CLR,,0.02,WeatherDisplay:10.37,2013-07-11 14:43:00,
2013-07-11 10:48:00,84.8,77.2,29.99,South,178,1.9,3.5,78,0.00,CLR,,0.02,WeatherDisplay:10.37,2013-07-11 14:48:00,
2013-07-11 10:53:00,84.9,76.9,30.00,SSE,155,3.3,4.6,77,0.00,CLR,,0.02,WeatherDisplay:10.37,2013-07-11 14:53:00,
2013-07-11 10:58:00,84.8,76.8,30.00,SE,127,6.9,8.1,77,0.00,CLR,,0.02,WeatherDisplay:10.37,2013-07-11 14:58:00,
2013-07-11 11:03:00,84.2,76.2,30.00,South,175,4.0,5.8,77,0.00,CLR,,0.02,WeatherDisplay:10.37,2013-07-11 15:03:00,
2013-07-11 11:09:00,84.2,76.2,30.00,SE,132,1.5,3.5,77,0.00,CLR,,0.02,WeatherDisplay:10.37,2013-07-11 15:09:00,
2013-07-11 11:14:00,84.2,75.8,30.00,SE,140,0.7,2.3,76,0.00,CLR,,0.02,WeatherDisplay:10.37,2013-07-11 15:14:00,
2013-07-11 11:19:00,84.4,75.2,30.00,SSE,162,3.3,6.9,74,0.00,CLR,,0.02,WeatherDisplay:10.37,2013-07-11 15:19:00,
2013-07-11 11:24:00,85.0,75.4,29.99,SE,145,3.4,5.8,73,0.00,CLR,,0.02,WeatherDisplay:10.37,2013-07-11 15:24:00,
2013-07-11 11:29:00,85.4,74.5,29.99,East,86,3.9,4.6,70,0.00,CLR,,0.02,WeatherDisplay:10.37,2013-07-11 15:29:00,
2013-07-11 11:34:00,85.9,75.0,29.99,SE,138,3.1,5.0,70,0.00,CLR,,0.02,WeatherDisplay:10.37,2013-07-11 15:34:00,
2013-07-11 11:40:00,86.0,73.8,29.99,East,94,1.8,3.5,67,0.00,CLR,,0.02,WeatherDisplay:10.37,2013-07-11 15:40:00,
2013-07-11 11:45:00,86.4,75.0,29.99,South,187,2.4,5.8,69,0.00,CLR,,0.02,WeatherDisplay:10.37,2013-07-11 15:45:00,
2013-07-11 11:50:00,86.7,74.0,29.99,SE,137,3.9,7.0,66,0.00,CLR,,0.02,WeatherDisplay:10.37,2013-07-11 15:50:00,
2013-07-11 11:56:00,86.8,75.0,30.00,SSE,150,5.0,8.1,68,0.00,CLR,,0.02,WeatherDisplay:10.37,2013-07-11 15:56:00,
2013-07-11 12:02:00,87.3,76.3,29.99,SE,137,0.4,3.5,70,0.00,CLR,,0.02,WeatherDisplay:10.37,2013-07-11 16:02:00,
2013-07-11 12:07:00,87.5,75.2,29.99,South,171,3.2,3.5,67,0.00,CLR,,0.02,WeatherDisplay:10.37,2013-07-11 16:07:00,
2013-07-11 12:12:00,87.3,77.2,29.99,South,172,0.5,3.5,72,0.00,CLR,,0.02,WeatherDisplay:10.37,2013-07-11 16:12:00,
2013-07-11 12:17:00,86.8,76.3,29.99,SSE,155,4.4,8.0,71,0.00,CLR,,0.02,WeatherDisplay:10.37,2013-07-11 16:17:00,
2013-07-11 12:22:00,86.4,75.5,29.99,East,94,5.2,10.4,70,0.00,CLR,,0.02,WeatherDisplay:10.37,2013-07-11 16:22:00,
2013-07-11 12:28:00,86.5,76.0,29.99,ENE,71,4.7,7.0,71,0.00,CLR,,0.02,WeatherDisplay:10.37,2013-07-11 16:28:00,
2013-07-11 12:33:00,86.6,76.1,29.99,SE,129,3.8,6.9,71,0.00,CLR,,0.02,WeatherDisplay:10.37,2013-07-11 16:33:00,
2013-07-11 12:38:00,87.0,75.2,29.98,ENE,69,3.7,8.1,68,0.00,CLR,,0.02,WeatherDisplay:10.37,2013-07-11 16:38:00,
2013-07-11 12:43:00,87.3,75.4,29.98,SSE,162,2.7,4.6,68,0.00,CLR,,0.02,WeatherDisplay:10.37,2013-07-11 16:43:00,
2013-07-11 12:49:00,87.4,75.1,29.98,SE,132,3.2,3.5,67,0.00,CLR,,0.02,WeatherDisplay:10.37,2013-07-11 16:49:00,
2013-07-11 12:54:00,87.3,75.4,29.98,ESE,113,2.1,4.6,68,0.00,CLR,,0.02,WeatherDisplay:10.37,2013-07-11 16:54:00,
2013-07-11 13:00:00,87.1,74.8,29.98,SE,127,3.4,3.5,67,0.00,CLR,,0.02,WeatherDisplay:10.37,2013-07-11 17:00:00,
2013-07-11 13:05:00,87.0,75.2,29.98,ESE,121,3.5,6.9,68,0.00,CLR,,0.02,WeatherDisplay:10.37,2013-07-11 17:05:00,
2013-07-11 13:10:00,87.4,75.1,29.98,ESE,111,3.9,4.6,67,0.00,CLR,,0.02,WeatherDisplay:10.37,2013-07-11 17:10:00,
2013-07-11 13:15:00,87.7,74.5,29.98,ESE,105,6.1,9.2,65,0.00,CLR,,0.02,WeatherDisplay:10.37,2013-07-11 17:15:00,
2013-07-11 13:21:00,87.7,74.0,29.98,ESE,121,4.1,6.9,64,0.00,CLR,,0.02,WeatherDisplay:10.37,2013-07-11 17:21:00,
2013-07-11 13:26:00,87.7,75.8,29.97,SSE,161,1.0,4.6,68,0.00,CLR,,0.02,WeatherDisplay:10.37,2013-07-11 17:26:00,
2013-07-11 13:31:00,87.9,75.1,29.97,SE,133,3.3,4.6,66,0.00,CLR,,0.02,WeatherDisplay:10.37,2013-07-11 17:31:00,
2013-07-11 13:36:00,87.8,75.0,29.97,ENE,72,2.9,3.5,66,0.00,CLR,,0.02,WeatherDisplay:10.37,2013-07-11 17:36:00,
2013-07-11 13:41:00,87.6,75.3,29.97,SE,130,2.7,4.6,67,0.00,CLR,,0.02,WeatherDisplay:10.37,2013-07-11 17:41:00,
2013-07-11 13:48:00,88.0,75.7,29.97,ESE,112,4.1,6.9,67,0.00,CLR,,0.02,WeatherDisplay:10.37,2013-07-11 17:48:00,
2013-07-11 13:53:00,88.4,76.0,29.97,South,185,4.5,8.1,67,0.00,CLR,,0.02,WeatherDisplay:10.37,2013-07-11 17:53:00,
2013-07-11 13:58:00,88.4,76.9,29.96,ESE,123,3.5,5.8,69,0.00,CLR,,0.02,WeatherDisplay:10.37,2013-07-11 17:58:00,
2013-07-11 14:03:00,88.2,76.3,29.96,ENE,62,7.7,11.5,68,0.00,CLR,,0.02,WeatherDisplay:10.37,2013-07-11 18:03:00,
2013-07-11 14:09:00,88.0,77.0,29.96,SE,126,3.0,4.6,70,0.00,CLR,,0.02,WeatherDisplay:10.37,2013-07-11 18:09:00,
2013-07-11 14:14:00,88.2,77.6,29.96,SE,132,6.2,9.2,71,0.00,CLR,,0.02,WeatherDisplay:10.37,2013-07-11 18:14:00,
2013-07-11 14:19:00,87.9,76.0,29.96,ENE,75,3.2,4.6,68,0.00,CLR,,0.02,WeatherDisplay:10.37,2013-07-11 18:19:00,
2013-07-11 14:24:00,87.5,75.6,29.96,ESE,114,2.9,4.6,68,0.00,CLR,,0.02,WeatherDisplay:10.37,2013-07-11 18:24:00,
2013-07-11 14:29:00,87.1,76.5,29.96,SSE,159,2.1,3.5,71,0.00,CLR,,0.02,WeatherDisplay:10.37,2013-07-11 18:29:00,
2013-07-11 14:34:00,87.1,76.5,29.96,ESE,110,3.3,6.9,71,0.00,CLR,,0.02,WeatherDisplay:10.37,2013-07-11 18:34:00,
2013-07-11 14:40:00,87.0,76.5,29.96,East,80,4.3,8.1,71,0.00,CLR,,0.02,WeatherDisplay:10.37,2013-07-11 18:40:00,
2013-07-11 14:45:00,86.9,75.9,29.96,SSE,163,4.5,7.0,70,0.00,CLR,,0.02,WeatherDisplay:10.37,2013-07-11 18:45:00,
2013-07-11 14:50:00,87.1,76.5,29.95,ESE,117,4.0,6.9,71,0.00,CLR,,0.02,WeatherDisplay:10.37,2013-07-11 18:50:00,
2013-07-11 14:55:00,87.3,76.7,29.95,ESE,112,3.7,5.8,71,0.00,CLR,,0.02,WeatherDisplay:10.37,2013-07-11 18:55:00,
2013-07-11 15:00:00,87.2,76.2,29.95,ESE,116,8.2,11.5,70,0.00,CLR,,0.02,WeatherDisplay:10.37,2013-07-11 19:00:00,
2013-07-11 15:06:00,87.4,76.0,29.95,NE,36,6.2,10.4,69,0.00,CLR,,0.02,WeatherDisplay:10.37,2013-07-11 19:06:00,
2013-07-11 15:11:00,87.4,76.0,29.95,ESE,105,10.5,11.5,69,0.00,CLR,,0.02,WeatherDisplay:10.37,2013-07-11 19:11:00,
2013-07-11 15:16:00,87.4,75.5,29.94,SE,134,5.8,8.1,68,0.00,CLR,,0.02,WeatherDisplay:10.37,2013-07-11 19:16:00,
2013-07-11 15:21:00,87.4,75.5,29.94,East,95,5.8,9.2,68,0.00,CLR,,0.02,WeatherDisplay:10.37,2013-07-11 19:21:00,
2013-07-11 15:27:00,87.3,75.4,29.94,ESE,103,6.0,9.2,68,0.00,CLR,,0.02,WeatherDisplay:10.37,2013-07-11 19:27:00,
2013-07-11 15:33:00,87.2,75.8,29.94,SE,143,7.5,12.7,69,0.00,CLR,,0.02,WeatherDisplay:10.37,2013-07-11 19:33:00,
2013-07-11 15:39:00,87.3,75.4,29.93,East,93,5.2,8.1,68,0.00,CLR,,0.02,WeatherDisplay:10.37,2013-07-11 19:39:00,
2013-07-11 15:45:00,87.4,75.1,29.93,East,96,6.7,9.2,67,0.00,CLR,,0.02,WeatherDisplay:10.37,2013-07-11 19:45:00,
2013-07-11 15:50:00,87.0,73.3,29.92,East,101,9.7,10.4,64,0.00,CLR,,0.02,WeatherDisplay:10.37,2013-07-11 19:50:00,
2013-07-11 15:55:00,87.0,74.7,29.92,SE,128,7.7,13.8,67,0.00,CLR,,0.02,WeatherDisplay:10.37,2013-07-11 19:55:00,
2013-07-11 16:00:00,86.9,74.6,29.93,East,81,9.9,13.8,67,0.00,CLR,,0.02,WeatherDisplay:10.37,2013-07-11 20:00:00,
2013-07-11 16:05:00,87.0,74.3,29.93,East,94,4.8,9.2,66,0.00,CLR,,0.02,WeatherDisplay:10.37,2013-07-11 20:05:00,
2013-07-11 16:11:00,86.8,75.4,29.94,ESE,114,7.0,8.1,69,0.00,CLR,,0.02,WeatherDisplay:10.37,2013-07-11 20:11:00,
2013-07-11 16:16:00,87.0,75.2,29.94,ESE,109,8.2,11.5,68,0.00,CLR,,0.02,WeatherDisplay:10.37,2013-07-11 20:16:00,
2013-07-11 16:21:00,87.0,75.6,29.94,ESE,121,3.3,10.4,69,0.00,CLR,,0.02,WeatherDisplay:10.37,2013-07-11 20:21:00,
2013-07-11 16:26:00,86.6,75.6,29.94,ESE,106,3.1,6.9,70,0.00,CLR,,0.02,WeatherDisplay:10.37,2013-07-11 20:26:00,
2013-07-11 16:31:00,86.3,75.8,29.95,SSE,155,3.9,9.2,71,0.00,CLR,,0.02,WeatherDisplay:10.37,2013-07-11 20:31:00,
2013-07-11 16:37:00,86.3,75.8,29.95,SE,138,2.2,5.8,71,0.00,CLR,,0.02,WeatherDisplay:10.37,2013-07-11 20:37:00,
2013-07-11 16:43:00,85.7,74.4,29.96,WSW,255,11.3,11.3,69,0.00,CLR,,0.02,WeatherDisplay:10.37,2013-07-11 20:43:00,
2013-07-11 16:48:00,84.1,71.1,29.96,SW,227,3.1,9.2,65,0.00,CLR,,0.02,WeatherDisplay:10.37,2013-07-11 20:48:00,
2013-07-11 16:53:00,82.5,70.9,29.96,SW,236,12.5,15.0,68,0.00,CLR,,0.02,WeatherDisplay:10.37,2013-07-11 20:53:00,
2013-07-11 16:58:00,81.5,70.3,29.96,WNW,292,5.8,10.4,69,0.00,CLR,,0.02,WeatherDisplay:10.37,2013-07-11 20:58:00,
2013-07-11 17:03:00,80.9,70.2,29.97,WSW,244,4.9,10.4,70,0.00,CLR,,0.02,WeatherDisplay:10.37,2013-07-11 21:03:00,
2013-07-11 17:08:00,80.5,70.2,29.97,West,268,4.3,4.6,71,0.00,CLR,,0.02,WeatherDisplay:10.37,2013-07-11 21:08:00,
2013-07-11 17:15:00,80.0,69.7,29.97,WSW,242,1.7,6.9,71,0.00,CLR,,0.02,WeatherDisplay:10.37,2013-07-11 21:15:00,
2013-07-11 17:20:00,79.7,70.3,29.96,WSW,246,0.8,3.5,73,0.00,CLR,,0.02,WeatherDisplay:10.37,2013-07-11 21:20:00,
2013-07-11 17:25:00,79.6,69.8,29.96,NW,325,2.6,3.5,72,0.00,CLR,,0.02,WeatherDisplay:10.37,2013-07-11 21:25:00,
2013-07-11 17:30:00,79.4,70.4,29.96,NW,319,0.0,0.0,74,0.00,CLR,,0.02,WeatherDisplay:10.37,2013-07-11 21:30:00,
2013-07-11 17:35:00,79.2,70.2,29.96,NW,319,1.6,3.5,74,0.00,CLR,,0.02,WeatherDisplay:10.37,2013-07-11 21:35:00,
2013-07-11 17:41:00,79.0,70.8,29.96,ESE,113,0.5,1.2,76,0.00,CLR,,0.02,WeatherDisplay:10.37,2013-07-11 21:41:00,
2013-07-11 17:46:00,78.9,70.7,29.96,NW,315,0.0,0.0,76,0.00,CLR,,0.02,WeatherDisplay:10.37,2013-07-11 21:46:00,
2013-07-11 17:51:00,78.9,70.3,29.96,WNW,284,1.1,2.3,75,0.00,CLR,,0.02,WeatherDisplay:10.37,2013-07-11 21:51:00,
2013-07-11 17:56:00,79.1,70.1,29.96,WNW,294,1.3,3.5,74,0.00,CLR,,0.02,WeatherDisplay:10.37,2013-07-11 21:56:00,
2013-07-11 18:01:00,79.3,70.3,29.97,WNW,302,2.0,3.5,74,0.00,CLR,,0.02,WeatherDisplay:10.37,2013-07-11 22:01:00,
2013-07-11 18:07:00,79.7,71.5,29.97,North,5,0.5,3.5,76,0.00,CLR,,0.02,WeatherDisplay:10.37,2013-07-11 22:07:00,
2013-07-11 18:12:00,79.8,71.2,29.97,NW,317,1.5,3.5,75,0.00,CLR,,0.02,WeatherDisplay:10.37,2013-07-11 22:12:00,
2013-07-11 18:18:00,79.8,71.2,29.96,North,349,0.1,3.5,75,0.00,CLR,,0.02,WeatherDisplay:10.37,2013-07-11 22:18:00,
2013-07-11 18:23:00,79.7,69.9,29.96,NW,308,2.9,6.9,72,0.00,CLR,,0.02,WeatherDisplay:10.37,2013-07-11 22:23:00,
2013-07-11 18:28:00,79.7,70.3,29.96,NNW,336,2.5,6.9,73,0.00,CLR,,0.02,WeatherDisplay:10.37,2013-07-11 22:28:00,
2013-07-11 18:33:00,79.6,70.6,29.96,NW,304,1.9,4.0,74,0.00,CLR,,0.02,WeatherDisplay:10.37,2013-07-11 22:33:00,
2013-07-11 18:39:00,79.6,71.0,29.96,NNW,331,1.7,4.6,75,0.00,CLR,,0.02,WeatherDisplay:10.37,2013-07-11 22:39:00,
2013-07-11 18:44:00,79.5,71.3,29.96,North,350,2.1,3.5,76,0.00,CLR,,0.02,WeatherDisplay:10.37,2013-07-11 22:44:00,
2013-07-11 18:49:00,79.2,71.7,29.96,NNE,13,1.2,2.3,78,0.00,CLR,,0.02,WeatherDisplay:10.37,2013-07-11 22:49:00,
2013-07-11 18:54:00,79.0,71.9,29.96,North,9,0.4,2.3,79,0.00,CLR,,0.02,WeatherDisplay:10.37,2013-07-11 22:54:00,
2013-07-11 19:00:00,78.8,71.7,29.96,North,5,0.0,0.0,79,0.00,CLR,,0.02,WeatherDisplay:10.37,2013-07-11 23:00:00,
2013-07-11 19:06:00,78.8,71.7,29.96,North,5,0.0,0.0,79,0.00,CLR,,0.02,WeatherDisplay:10.37,2013-07-11 23:06:00,
2013-07-11 19:11:00,78.9,72.6,29.95,North,5,0.0,0.0,81,0.00,CLR,,0.02,WeatherDisplay:10.37,2013-07-11 23:11:00,
2013-07-11 19:16:00,78.9,72.2,29.95,North,5,0.3,1.2,80,0.00,CLR,,0.02,WeatherDisplay:10.37,2013-07-11 23:16:00,
2013-07-11 19:21:00,78.9,71.8,29.95,North,5,0.9,2.3,79,0.00,CLR,,0.02,WeatherDisplay:10.37,2013-07-11 23:21:00,
2013-07-11 19:27:00,78.9,72.9,29.95,North,5,0.0,0.0,82,0.00,CLR,,0.02,WeatherDisplay:10.37,2013-07-11 23:27:00,
2013-07-11 19:32:00,78.7,72.7,29.95,North,5,0.0,0.0,82,0.00,CLR,,0.02,WeatherDisplay:10.37,2013-07-11 23:32:00,
2013-07-11 19:37:00,78.7,73.5,29.95,North,5,0.0,0.0,84,0.00,CLR,,0.02,WeatherDisplay:10.37,2013-07-11 23:37:00,
2013-07-11 19:42:00,78.5,72.9,29.95,North,5,0.0,0.0,83,0.00,CLR,,0.02,WeatherDisplay:10.37,2013-07-11 23:42:00,
2013-07-11 19:47:00,78.4,73.2,29.95,North,5,0.0,0.0,84,0.00,CLR,,0.02,WeatherDisplay:10.37,2013-07-11 23:47:00,
2013-07-11 19:52:00,78.3,73.4,29.95,North,5,0.0,0.0,85,0.00,CLR,,0.02,WeatherDisplay:10.37,2013-07-11 23:52:00,
2013-07-11 19:58:00,78.4,73.9,29.96,North,5,0.0,0.0,86,0.00,CLR,,0.02,WeatherDisplay:10.37,2013-07-11 23:58:00,
2013-07-11 20:03:00,78.1,73.2,29.95,North,5,0.0,0.0,85,0.00,CLR,,0.02,WeatherDisplay:10.37,2013-07-12 00:03:00,
2013-07-11 20:08:00,77.9,72.3,29.95,North,5,0.1,1.2,83,0.00,CLR,,0.02,WeatherDisplay:10.37,2013-07-12 00:08:00,
2013-07-11 20:13:00,77.9,73.0,29.95,North,5,0.0,0.0,85,0.00,CLR,,0.02,WeatherDisplay:10.37,2013-07-12 00:13:00,
2013-07-11 20:18:00,77.8,73.3,29.95,North,5,0.0,0.0,86,0.00,CLR,,0.02,WeatherDisplay:10.37,2013-07-12 00:18:00,
2013-07-11 20:23:00,77.6,72.7,29.95,North,5,0.0,0.0,85,0.00,CLR,,0.02,WeatherDisplay:10.37,2013-07-12 00:23:00,
2013-07-11 20:28:00,77.5,72.3,29.95,North,5,0.0,0.0,84,0.00,CLR,,0.02,WeatherDisplay:10.37,2013-07-12 00:28:00,
2013-07-11 20:34:00,77.6,73.1,29.95,North,5,0.0,0.0,86,0.00,CLR,,0.02,WeatherDisplay:10.37,2013-07-12 00:34:00,
2013-07-11 20:39:00,77.5,73.3,29.95,North,5,0.0,0.0,87,0.00,CLR,,0.02,WeatherDisplay:10.37,2013-07-12 00:39:00,
2013-07-11 20:44:00,77.2,72.7,29.95,North,5,0.0,0.0,86,0.00,CLR,,0.02,WeatherDisplay:10.37,2013-07-12 00:44:00,
2013-07-11 20:49:00,77.1,72.6,29.95,North,5,0.0,0.0,86,0.00,CLR,,0.02,WeatherDisplay:10.37,2013-07-12 00:49:00,
2013-07-11 20:55:00,77.1,72.9,29.95,North,5,0.0,0.0,87,0.00,CLR,,0.02,WeatherDisplay:10.37,2013-07-12 00:55:00,
2013-07-11 21:00:00,77.0,73.2,29.95,North,5,0.0,0.0,88,0.00,CLR,,0.02,WeatherDisplay:10.37,2013-07-12 01:00:00,
2013-07-11 21:05:00,76.8,72.6,29.95,North,5,0.0,0.0,87,0.00,CLR,,0.02,WeatherDisplay:10.37,2013-07-12 01:05:00,
2013-07-11 21:10:00,76.8,73.3,29.95,North,5,0.0,0.0,89,0.00,CLR,,0.02,WeatherDisplay:10.37,2013-07-12 01:10:00,
2013-07-11 21:16:00,76.8,73.3,29.95,North,5,0.0,0.0,89,0.00,CLR,,0.02,WeatherDisplay:10.37,2013-07-12 01:16:00,
2013-07-11 21:21:00,76.9,73.7,29.96,North,5,0.0,0.0,90,0.00,CLR,,0.02,WeatherDisplay:10.37,2013-07-12 01:21:00,
2013-07-11 21:26:00,76.6,73.4,29.96,North,5,0.0,0.0,90,0.00,CLR,,0.02,WeatherDisplay:10.37,2013-07-12 01:26:00,
2013-07-11 21:32:00,76.5,73.3,29.96,North,5,0.0,0.0,90,0.00,CLR,,0.02,WeatherDisplay:10.37,2013-07-12 01:32:00,
2013-07-11 21:37:00,76.5,73.7,29.96,North,5,0.0,0.0,91,0.00,CLR,,0.02,WeatherDisplay:10.37,2013-07-12 01:37:00,
2013-07-11 21:42:00,76.4,73.6,29.96,North,5,0.0,0.0,91,0.00,CLR,,0.02,WeatherDisplay:10.37,2013-07-12 01:42:00,
2013-07-11 21:47:00,76.3,73.5,29.96,North,5,0.0,0.0,91,0.00,CLR,,0.02,WeatherDisplay:10.37,2013-07-12 01:47:00,
2013-07-11 21:52:00,76.4,73.6,29.96,North,5,0.0,0.0,91,0.00,CLR,,0.02,WeatherDisplay:10.37,2013-07-12 01:52:00,
2013-07-11 21:58:00,76.5,74.0,29.96,North,5,0.0,0.0,92,0.00,CLR,,0.02,WeatherDisplay:10.37,2013-07-12 01:58:00,
2013-07-11 22:03:00,76.4,73.9,29.96,North,5,0.0,0.0,92,0.00,CLR,,0.02,WeatherDisplay:10.37,2013-07-12 02:03:00,
2013-07-11 22:08:00,76.3,73.8,29.96,North,5,0.0,0.0,92,0.00,CLR,,0.02,WeatherDisplay:10.37,2013-07-12 02:08:00,
2013-07-11 22:13:00,76.1,73.3,29.97,North,5,0.0,0.0,91,0.00,CLR,,0.02,WeatherDisplay:10.37,2013-07-12 02:13:00,
2013-07-11 22:18:00,76.0,73.2,29.97,North,5,0.0,0.0,91,0.00,CLR,,0.02,WeatherDisplay:10.37,2013-07-12 02:18:00,
2013-07-11 22:23:00,75.9,73.1,29.97,North,5,0.0,0.0,91,0.00,CLR,,0.02,WeatherDisplay:10.37,2013-07-12 02:23:00,
2013-07-11 22:29:00,75.9,73.1,29.97,North,5,0.0,0.0,91,0.00,CLR,,0.02,WeatherDisplay:10.37,2013-07-12 02:29:00,
2013-07-11 22:35:00,75.9,73.4,29.98,North,5,0.0,0.0,92,0.00,CLR,,0.02,WeatherDisplay:10.37,2013-07-12 02:35:00,
2013-07-11 22:40:00,75.7,72.9,29.97,North,5,0.0,0.0,91,0.00,CLR,,0.02,WeatherDisplay:10.37,2013-07-12 02:40:00,
2013-07-11 22:45:00,75.7,73.2,29.97,North,5,0.0,0.0,92,0.00,CLR,,0.02,WeatherDisplay:10.37,2013-07-12 02:45:00,
2013-07-11 22:51:00,75.9,73.4,29.97,North,5,0.0,0.0,92,0.00,CLR,,0.02,WeatherDisplay:10.37,2013-07-12 02:51:00,
2013-07-11 22:56:00,75.9,73.4,29.97,North,5,0.0,0.0,92,0.00,CLR,,0.02,WeatherDisplay:10.37,2013-07-12 02:56:00,
2013-07-11 23:01:00,75.9,73.4,29.97,North,5,0.0,0.0,92,0.00,CLR,,0.02,WeatherDisplay:10.37,2013-07-12 03:01:00,
2013-07-11 23:07:00,75.9,73.4,29.97,North,5,0.0,0.0,92,0.00,CLR,,0.02,WeatherDisplay:10.37,2013-07-12 03:07:00,
2013-07-11 23:12:00,75.8,73.0,29.96,North,5,0.0,0.0,91,0.00,CLR,,0.02,WeatherDisplay:10.37,2013-07-12 03:12:00,
2013-07-11 23:17:00,75.8,73.0,29.96,North,5,0.0,0.0,91,0.00,CLR,,0.02,WeatherDisplay:10.37,2013-07-12 03:17:00,
2013-07-11 23:22:00,75.9,73.1,29.96,North,5,0.0,0.0,91,0.00,CLR,,0.02,WeatherDisplay:10.37,2013-07-12 03:22:00,
2013-07-11 23:28:00,76.0,73.2,29.96,North,5,0.1,0.0,91,0.00,CLR,,0.02,WeatherDisplay:10.37,2013-07-12 03:28:00,
2013-07-11 23:33:00,76.1,73.3,29.96,North,5,0.0,0.0,91,0.00,CLR,,0.02,WeatherDisplay:10.37,2013-07-12 03:33:00,
2013-07-11 23:39:00,76.0,72.9,29.96,North,5,0.2,1.2,90,0.00,CLR,,0.02,WeatherDisplay:10.37,2013-07-12 03:39:00,
2013-07-11 23:44:00,76.1,73.0,29.96,North,5,0.0,0.0,90,0.00,CLR,,0.02,WeatherDisplay:10.37,2013-07-12 03:44:00,
2013-07-11 23:50:00,76.1,73.0,29.97,North,5,0.0,0.0,90,0.00,CLR,,0.02,WeatherDisplay:10.37,2013-07-12 03:50:00,
2013-07-11 23:55:00,76.2,73.1,29.97,North,5,0.0,1.2,90,0.00,CLR,,0.02,WeatherDisplay:10.37,2013-07-12 03:55:00,